Time;durP1;ratioP1;P1;durP2;ratioP2;P2;SDS_P1;SDS_P2;PMS_P1;PMS_P2;Temp;Humidity;BMP_temperature;BMP_pressure;BME280_temperature;BME280_humidity;BME280_pressure;Samples;Min_cycle;Max_cycle;Signal;HPM_P1;HPM_P2
2022/06/16 00:00:21;;;;;;;6.57;4.80;;;20.10;99.90;;;;;;5118138;28;20927;-49
2022/06/16 00:02:50;;;;;;;5.73;5.03;;;20.10;99.90;;;;;;5118358;28;20530;-46
2022/06/16 00:05:21;;;;;;;6.70;4.70;;;20.10;99.90;;;;;;5118356;28;20491;-46
2022/06/16 00:07:48;;;;;;;5.10;4.20;;;20.10;99.90;;;;;;5118453;28;20875;-49
2022/06/16 00:10:16;;;;;;;4.60;3.90;;;20.10;99.90;;;;;;5118332;28;20469;-46
2022/06/16 00:12:43;;;;;;;8.40;5.20;;;19.90;99.90;;;;;;5118188;28;20443;-46
2022/06/16 00:15:14;;;;;;;5.50;4.50;;;19.90;99.90;;;;;;5118164;28;20510;-49
2022/06/16 00:17:42;;;;;;;4.90;3.87;;;19.80;99.90;;;;;;5118459;28;20487;-48
2022/06/16 00:20:11;;;;;;;6.57;4.43;;;19.80;99.90;;;;;;5118105;28;20526;-47
2022/06/16 00:22:38;;;;;;;7.87;4.73;;;19.80;99.90;;;;;;5118092;28;20968;-46
2022/06/16 00:25:07;;;;;;;5.67;4.13;;;19.80;99.90;;;;;;5118408;28;20444;-46
2022/06/16 00:27:34;;;;;;;4.97;4.47;;;19.80;99.90;;;;;;5118445;28;20458;-46
2022/06/16 00:30:01;;;;;;;6.93;4.63;;;19.80;99.90;;;;;;5117804;28;20491;-46
2022/06/16 00:32:28;;;;;;;5.20;4.57;;;19.70;99.90;;;;;;5118195;28;20820;-46
2022/06/16 00:34:57;;;;;;;5.47;4.40;;;19.60;99.90;;;;;;5118121;28;20565;-46
2022/06/16 00:37:24;;;;;;;6.87;4.60;;;19.60;99.90;;;;;;5117886;28;20466;-49
2022/06/16 00:39:51;;;;;;;6.40;4.97;;;19.60;99.90;;;;;;5118014;28;20434;-46
2022/06/16 00:42:20;;;;;;;7.70;4.30;;;19.60;99.90;;;;;;5118301;28;20973;-49
2022/06/16 00:44:51;;;;;;;6.80;4.60;;;19.60;99.90;;;;;;5118081;28;20832;-46
2022/06/16 00:47:20;;;;;;;6.40;4.00;;;19.60;99.90;;;;;;5118162;28;20541;-46
2022/06/16 00:49:49;;;;;;;6.17;4.00;;;19.60;99.90;;;;;;5117750;28;20441;-47
2022/06/16 00:52:20;;;;;;;6.37;4.03;;;19.50;99.90;;;;;;5117765;28;21004;-46
2022/06/16 00:54:52;;;;;;;7.80;4.53;;;19.50;99.90;;;;;;5117978;28;20589;-47
2022/06/16 00:57:23;;;;;;;5.73;4.43;;;19.40;99.90;;;;;;5117952;28;20942;-46
2022/06/16 00:59:51;;;;;;;4.80;4.00;;;19.30;99.90;;;;;;5115058;28;20473;-46
2022/06/16 01:02:19;;;;;;;5.30;4.43;;;19.30;99.90;;;;;;5114783;28;20533;-46
2022/06/16 01:04:54;;;;;;;8.67;4.77;;;19.30;99.90;;;;;;5114572;28;20597;-46
2022/06/16 01:07:28;;;;;;;5.83;4.50;;;19.30;99.90;;;;;;5114885;28;20544;-46
2022/06/16 01:09:56;;;;;;;4.77;4.27;;;19.30;99.90;;;;;;5114382;28;20930;-46
2022/06/16 01:15:54;;;;;;;7.43;4.80;;;19.30;99.90;;;;;;5114505;28;20469;-46
2022/06/16 01:18:29;;;;;;;5.00;3.97;;;19.40;99.90;;;;;;5114246;28;20853;-49
2022/06/16 01:21:04;;;;;;;7.10;4.27;;;19.20;99.90;;;;;;5114328;28;20525;-46
2022/06/16 01:24:04;;;;;;;4.70;4.30;;;19.20;99.90;;;;;;5114206;28;20462;-47
2022/06/16 01:27:22;;;;;;;5.27;4.10;;;19.10;99.90;;;;;;5114258;28;20521;-47
2022/06/16 01:29:58;;;;;;;6.37;3.73;;;19.10;99.90;;;;;;5031070;28;20521;-46
2022/06/16 01:32:33;;;;;;;5.40;4.00;;;18.80;99.90;;;;;;5031424;28;20495;-46
2022/06/16 01:35:09;;;;;;;6.53;3.60;;;18.90;99.90;;;;;;5087315;28;20557;-46
2022/06/16 01:37:43;;;;;;;5.60;4.53;;;19.00;99.90;;;;;;5114258;28;20466;-45
2022/06/16 01:40:16;;;;;;;6.73;4.40;;;19.00;99.90;;;;;;5113858;28;20520;-46
2022/06/16 01:42:49;;;;;;;4.90;3.87;;;18.70;99.90;;;;;;5114096;28;20492;-46
2022/06/16 01:45:21;;;;;;;7.80;4.70;;;18.80;99.90;;;;;;5114164;28;20956;-46
2022/06/16 01:47:51;;;;;;;11.37;5.13;;;18.90;99.90;;;;;;5114094;28;20466;-46
2022/06/16 01:50:23;;;;;;;7.50;5.10;;;18.90;99.90;;;;;;5114051;28;20435;-46
2022/06/16 01:52:55;;;;;;;4.83;4.40;;;18.90;99.90;;;;;;5113742;28;21032;-46
2022/06/16 01:55:27;;;;;;;8.40;4.40;;;18.30;99.90;;;;;;5113704;28;20470;-46
2022/06/16 01:57:59;;;;;;;6.60;4.90;;;18.40;99.90;;;;;;5113543;28;20446;-47
2022/06/16 02:00:28;;;;;;;8.03;4.70;;;18.50;99.90;;;;;;5113410;28;20496;-47
2022/06/16 02:05:33;;;;;;;6.77;4.60;;;18.60;99.90;;;;;;5128445;22;20500;-47
2022/06/16 02:08:06;;;;;;;6.73;4.50;;;18.50;99.90;;;;;;5072870;28;20536;-47
2022/06/16 02:10:38;;;;;;;7.80;4.47;;;18.30;99.90;;;;;;5072445;28;20440;-49
2022/06/16 02:13:07;;;;;;;6.83;4.33;;;18.30;99.90;;;;;;5073091;28;21022;-47
2022/06/16 02:15:46;;;;;;;10.43;4.57;;;18.40;99.90;;;;;;5072453;28;21068;-49
2022/06/16 02:18:18;;;;;;;12.57;4.70;;;18.50;99.90;;;;;;5072438;28;20532;-47
2022/06/16 02:20:53;;;;;;;5.10;4.40;;;18.60;99.90;;;;;;5072649;28;20493;-46
2022/06/16 02:23:21;;;;;;;5.47;4.43;;;18.60;99.90;;;;;;5072574;28;20823;-50
2022/06/16 02:25:52;;;;;;;9.10;5.03;;;18.70;99.90;;;;;;5072344;28;20411;-46
2022/06/16 02:28:19;;;;;;;5.07;4.20;;;18.70;99.90;;;;;;5072530;28;20451;-48
2022/06/16 02:31:04;;;;;;;4.70;4.30;;;18.60;99.90;;;;;;5072209;28;20419;-47
2022/06/16 02:33:39;;;;;;;5.30;4.80;;;18.20;99.90;;;;;;5072285;28;20973;-46
2022/06/16 02:36:20;;;;;;;7.73;4.80;;;18.30;99.90;;;;;;5072082;28;20472;-47
2022/06/16 02:38:52;;;;;;;8.10;4.87;;;18.40;99.90;;;;;;5072082;28;20472;-46
2022/06/16 02:41:30;;;;;;;7.00;5.17;;;18.30;99.90;;;;;;5072219;28;20480;-51
2022/06/16 02:44:06;;;;;;;10.50;5.00;;;18.20;99.90;;;;;;5072184;28;21170;-47
2022/06/16 02:46:45;;;;;;;6.90;4.13;;;18.20;99.90;;;;;;5072242;28;20483;-47
2022/06/16 02:49:20;;;;;;;6.90;4.70;;;18.20;99.90;;;;;;5071735;28;20530;-48
2022/06/16 02:51:58;;;;;;;4.40;4.00;;;18.30;99.90;;;;;;5071807;28;20443;-47
2022/06/16 02:54:31;;;;;;;6.70;4.87;;;18.30;99.90;;;;;;5071663;28;20884;-47
2022/06/16 02:57:04;;;;;;;7.23;4.30;;;18.40;99.90;;;;;;5072182;28;20513;-47
2022/06/16 02:59:37;;;;;;;10.83;4.90;;;18.40;99.90;;;;;;5071660;28;20444;-47
2022/06/16 03:02:09;;;;;;;6.90;4.27;;;18.50;99.90;;;;;;5071845;28;20472;-46
2022/06/16 03:04:40;;;;;;;10.10;4.23;;;18.50;99.90;;;;;;5071589;28;20517;-47
2022/06/16 03:07:11;;;;;;;5.63;3.90;;;18.60;99.90;;;;;;5071490;28;20448;-47
2022/06/16 03:09:38;;;;;;;5.93;4.40;;;18.50;99.90;;;;;;5071290;28;20466;-47
2022/06/16 03:12:06;;;;;;;8.10;5.37;;;18.50;99.90;;;;;;5071546;28;20447;-47
2022/06/16 03:14:33;;;;;;;8.97;4.50;;;18.50;99.90;;;;;;5071140;28;20463;-47
2022/06/16 03:17:01;;;;;;;9.10;4.70;;;18.50;99.90;;;;;;5071368;28;20475;-48
2022/06/16 03:19:29;;;;;;;6.73;5.20;;;18.50;99.90;;;;;;5070969;28;20606;-47
2022/06/16 03:21:57;;;;;;;7.27;4.67;;;18.40;99.90;;;;;;5071455;28;20523;-47
2022/06/16 03:24:24;;;;;;;6.13;4.87;;;18.40;99.90;;;;;;5070881;28;20492;-47
2022/06/16 03:26:51;;;;;;;5.43;4.37;;;18.40;99.90;;;;;;5071260;28;20531;-47
2022/06/16 03:29:19;;;;;;;8.03;4.60;;;18.40;99.90;;;;;;5071409;28;20449;-47
2022/06/16 03:31:46;;;;;;;4.53;4.13;;;18.40;99.90;;;;;;5071673;28;20445;-46
2022/06/16 03:34:13;;;;;;;7.93;4.63;;;18.40;99.90;;;;;;5071157;28;20896;-48
2022/06/16 03:36:41;;;;;;;5.10;4.60;;;18.40;99.90;;;;;;5071090;28;20520;-47
2022/06/16 03:39:08;;;;;;;9.23;4.50;;;18.40;99.90;;;;;;5071160;28;20441;-47
2022/06/16 03:41:35;;;;;;;6.40;4.50;;;18.40;99.90;;;;;;5071284;28;20502;-50
2022/06/16 03:44:02;;;;;;;4.93;4.40;;;18.40;99.90;;;;;;5071469;28;20464;-47
2022/06/16 03:46:29;;;;;;;5.40;4.07;;;18.50;99.90;;;;;;5071467;28;20447;-47
2022/06/16 03:48:56;;;;;;;4.93;4.40;;;18.50;99.90;;;;;;5070935;28;20873;-47
2022/06/16 03:51:23;;;;;;;5.63;4.07;;;18.50;99.90;;;;;;5071272;28;20447;-47
2022/06/16 03:53:51;;;;;;;7.13;4.93;;;18.40;99.90;;;;;;5071048;28;20567;-50
2022/06/16 03:56:18;;;;;;;7.70;4.70;;;18.20;99.90;;;;;;5070637;28;20511;-48
2022/06/16 03:58:45;;;;;;;6.40;5.60;;;18.20;99.90;;;;;;5071149;28;20472;-46
2022/06/16 04:01:12;;;;;;;6.47;4.30;;;18.20;99.90;;;;;;5071008;28;20440;-52
2022/06/16 04:06:23;;;;;;;4.80;4.10;;;18.20;99.90;;;;;;5071166;28;20416;-47
2022/06/16 04:08:51;;;;;;;8.03;5.27;;;18.30;99.90;;;;;;5070886;28;20949;-46
2022/06/16 04:11:27;;;;;;;5.23;4.57;;;18.30;99.90;;;;;;5071048;28;20476;-47
2022/06/16 04:13:56;;;;;;;7.07;4.50;;;18.30;99.90;;;;;;5071021;28;20466;-47
2022/06/16 04:16:23;;;;;;;5.80;4.17;;;18.20;99.90;;;;;;5070897;28;20571;-47
2022/06/16 04:18:50;;;;;;;5.70;4.60;;;18.30;99.90;;;;;;5070474;28;20956;-47
2022/06/16 04:21:16;;;;;;;7.70;4.40;;;18.30;99.90;;;;;;5071108;28;20480;-47
2022/06/16 04:23:43;;;;;;;6.40;4.13;;;18.30;99.90;;;;;;5070877;28;20556;-49
2022/06/16 04:26:12;;;;;;;7.70;4.70;;;18.40;99.90;;;;;;5070862;28;20943;-47
2022/06/16 04:28:39;;;;;;;9.50;4.27;;;18.40;99.90;;;;;;5070859;28;20448;-47
2022/06/16 04:31:06;;;;;;;9.33;5.13;;;18.40;99.90;;;;;;5070858;28;20476;-49
2022/06/16 04:33:34;;;;;;;6.20;4.60;;;18.40;99.90;;;;;;5070821;28;20464;-46
2022/06/16 04:36:00;;;;;;;5.10;4.60;;;18.20;99.90;;;;;;5072749;28;20906;-47
2022/06/16 04:38:27;;;;;;;5.27;4.77;;;18.10;99.90;;;;;;5074481;28;20475;-46
2022/06/16 04:40:54;;;;;;;7.57;4.70;;;18.20;99.90;;;;;;5074217;28;20524;-50
2022/06/16 04:43:23;;;;;;;8.70;6.07;;;18.30;99.90;;;;;;5074336;28;20517;-47
2022/06/16 04:45:50;;;;;;;5.87;5.20;;;18.10;99.90;;;;;;5074292;28;20471;-46
2022/06/16 04:48:16;;;;;;;10.07;6.60;;;18.10;99.90;;;;;;5074243;28;20440;-46
2022/06/16 04:50:43;;;;;;;9.53;5.20;;;17.80;99.90;;;;;;5074246;28;20451;-48
2022/06/16 04:53:11;;;;;;;7.07;4.93;;;17.40;99.90;;;;;;5074241;28;20447;-47
2022/06/16 04:55:38;;;;;;;6.93;5.03;;;17.40;99.90;;;;;;5073871;28;20472;-50
2022/06/16 04:58:06;;;;;;;6.53;4.77;;;17.40;99.90;;;;;;5074289;28;20479;-46
2022/06/16 05:00:35;;;;;;;8.50;5.57;;;17.40;99.90;;;;;;5074124;28;20467;-47
2022/06/16 05:03:02;;;;;;;8.47;5.50;;;17.60;99.90;;;;;;5073919;28;20937;-47
2022/06/16 05:05:30;;;;;;;6.90;5.60;;;17.70;99.90;;;;;;5074049;28;20448;-47
2022/06/16 05:07:57;;;;;;;10.70;5.57;;;17.70;99.90;;;;;;5073944;28;20478;-47
2022/06/16 05:10:24;;;;;;;7.93;4.83;;;17.80;99.90;;;;;;5073585;28;20952;-47
2022/06/16 05:12:50;;;;;;;7.63;5.80;;;17.60;99.90;;;;;;5074077;28;20444;-49
2022/06/16 05:15:17;;;;;;;8.47;5.10;;;17.80;99.90;;;;;;5073680;28;20834;-47
2022/06/16 05:17:46;;;;;;;6.00;4.67;;;17.80;99.90;;;;;;5073852;28;20483;-47
2022/06/16 05:20:13;;;;;;;7.97;5.10;;;17.90;99.90;;;;;;5073161;28;20471;-50
2022/06/16 05:22:40;;;;;;;5.40;4.90;;;18.00;99.90;;;;;;5073441;28;21077;-47
2022/06/16 05:25:08;;;;;;;7.17;5.37;;;18.00;99.90;;;;;;5073868;28;20460;-46
2022/06/16 05:27:35;;;;;;;7.60;4.80;;;18.00;99.90;;;;;;5073597;28;20436;-47
2022/06/16 05:30:03;;;;;;;10.40;5.10;;;18.00;99.90;;;;;;5073366;28;20476;-47
2022/06/16 05:32:30;;;;;;;7.40;4.73;;;18.10;99.90;;;;;;5073743;28;20498;-49
2022/06/16 05:34:58;;;;;;;7.47;5.23;;;18.10;99.90;;;;;;5073239;28;20854;-47
2022/06/16 05:37:25;;;;;;;9.43;4.87;;;18.10;99.90;;;;;;5073246;28;20512;-47
2022/06/16 05:39:53;;;;;;;5.23;4.70;;;18.10;99.90;;;;;;5073429;28;20498;-47
2022/06/16 05:42:20;;;;;;;8.03;5.03;;;18.10;99.90;;;;;;5073502;28;20468;-47
2022/06/16 05:44:47;;;;;;;7.13;4.90;;;18.10;99.90;;;;;;5073158;28;20500;-46
2022/06/16 05:47:14;;;;;;;8.63;5.70;;;18.10;99.90;;;;;;5072986;28;20517;-47
2022/06/16 05:49:42;;;;;;;5.57;5.00;;;18.20;99.90;;;;;;5073157;28;20538;-47
2022/06/16 05:52:12;;;;;;;7.80;5.80;;;18.10;99.90;;;;;;5073064;28;20448;-51
2022/06/16 05:54:39;;;;;;;7.90;5.20;;;18.20;99.90;;;;;;5073251;28;20815;-47
2022/06/16 05:57:07;;;;;;;6.93;5.40;;;18.20;99.90;;;;;;5073085;28;20512;-46
2022/06/16 05:59:34;;;;;;;6.70;5.43;;;18.30;99.90;;;;;;5072835;28;20951;-47
2022/06/16 06:02:01;;;;;;;6.17;5.53;;;18.30;99.90;;;;;;5072754;28;20444;-47
2022/06/16 06:04:28;;;;;;;8.17;6.37;;;18.20;99.90;;;;;;5072709;28;21043;-47
2022/06/16 06:06:55;;;;;;;6.97;5.10;;;18.50;99.90;;;;;;5073062;28;20442;-46
2022/06/16 06:18:09;;;;;;;8.53;5.33;;;19.90;99.90;;;;;;5072699;28;20455;-49
2022/06/16 06:20:36;;;;;;;6.87;5.20;;;20.30;99.90;;;;;;5072156;28;20476;-48
2022/06/16 06:23:03;;;;;;;7.30;5.40;;;20.30;99.90;;;;;;5072746;28;20523;-48
2022/06/16 06:25:31;;;;;;;8.60;4.70;;;20.40;99.90;;;;;;5072754;28;20497;-47
2022/06/16 06:27:58;;;;;;;5.57;4.83;;;20.30;99.90;;;;;;5072572;28;20468;-47
2022/06/16 06:30:28;;;;;;;5.33;4.03;;;20.40;99.90;;;;;;5072105;28;20476;-49
2022/06/16 06:32:56;;;;;;;6.17;5.57;;;20.50;99.90;;;;;;5072426;28;20448;-49
2022/06/16 06:35:23;;;;;;;8.30;5.77;;;20.40;99.90;;;;;;5072227;28;20514;-47
2022/06/16 06:37:51;;;;;;;6.20;5.30;;;20.50;99.90;;;;;;5072645;28;20498;-47
2022/06/16 06:40:22;;;;;;;6.13;5.50;;;20.40;99.90;;;;;;5071814;28;20449;-50
2022/06/16 06:42:51;;;;;;;8.17;5.60;;;20.40;99.90;;;;;;5072213;28;20975;-47
2022/06/16 06:45:18;;;;;;;7.53;5.43;;;20.40;99.90;;;;;;5072098;28;20521;-47
2022/06/16 06:47:45;;;;;;;11.00;6.63;;;20.50;99.90;;;;;;5072209;28;20445;-46
2022/06/16 06:50:19;;;;;;;6.57;5.87;;;20.50;99.90;;;;;;5072408;28;20767;-47
2022/06/16 06:52:46;;;;;;;12.90;6.17;;;20.60;99.90;;;;;;5072411;28;20447;-47
2022/06/16 06:55:13;;;;;;;7.53;5.70;;;20.40;99.90;;;;;;5072814;28;20465;-47
2022/06/16 06:57:40;;;;;;;7.57;5.90;;;20.30;99.90;;;;;;5071391;28;20504;-47
2022/06/16 07:00:10;;;;;;;9.90;6.77;;;20.20;99.90;;;;;;5071754;28;20476;-48
2022/06/16 07:02:37;;;;;;;9.57;5.40;;;20.20;99.90;;;;;;5071874;28;20444;-47
2022/06/16 07:05:05;;;;;;;8.13;4.60;;;20.30;99.90;;;;;;5071509;28;20468;-47
2022/06/16 07:07:35;;;;;;;10.40;5.80;;;20.40;99.90;;;;;;5071887;28;20469;-47
2022/06/16 07:10:03;;;;;;;5.80;4.80;;;20.60;99.90;;;;;;5071239;28;20531;-48
2022/06/16 07:12:30;;;;;;;6.03;4.83;;;20.60;99.90;;;;;;5071238;28;20889;-48
2022/06/16 07:14:57;;;;;;;8.47;5.70;;;20.60;99.90;;;;;;5071480;28;20546;-46
2022/06/16 07:17:26;;;;;;;10.07;6.10;;;20.60;99.90;;;;;;5070412;28;20856;-49
2022/06/16 07:19:54;;;;;;;7.57;5.13;;;20.60;99.90;;;;;;5071088;28;20476;-47
2022/06/16 07:22:21;;;;;;;7.27;5.60;;;20.60;99.90;;;;;;5071482;28;20491;-47
2022/06/16 07:24:49;;;;;;;9.60;6.33;;;20.60;99.90;;;;;;5071053;28;20555;-47
2022/06/16 07:27:17;;;;;;;10.50;6.47;;;20.20;99.90;;;;;;5071628;28;20432;-47
2022/06/16 07:29:46;;;;;;;9.50;5.17;;;20.10;99.90;;;;;;5070465;28;20476;-47
2022/06/16 07:32:14;;;;;;;11.40;5.70;;;20.20;99.90;;;;;;5069578;28;20523;-50
2022/06/16 07:34:42;;;;;;;6.03;5.43;;;20.30;99.90;;;;;;5069859;28;20460;-48
2022/06/16 07:37:09;;;;;;;9.57;6.70;;;20.40;99.90;;;;;;5070158;28;20468;-49
2022/06/16 07:39:37;;;;;;;7.37;6.50;;;20.50;99.90;;;;;;5071018;28;20520;-47
2022/06/16 07:42:05;;;;;;;7.37;6.00;;;20.50;99.90;;;;;;5070853;28;20440;-50
2022/06/16 07:44:32;;;;;;;9.10;5.67;;;20.50;99.90;;;;;;5071009;28;20460;-47
2022/06/16 07:47:00;;;;;;;7.30;5.70;;;20.50;99.90;;;;;;5071131;28;20482;-47
2022/06/16 07:49:29;;;;;;;9.20;6.53;;;20.60;99.90;;;;;;5071436;28;20444;-47
2022/06/16 07:51:59;;;;;;;6.70;5.60;;;20.60;99.90;;;;;;5071047;28;20539;-51
2022/06/16 07:54:27;;;;;;;8.30;6.33;;;20.70;99.90;;;;;;5071034;28;20810;-47
2022/06/16 07:56:54;;;;;;;9.63;5.50;;;20.70;99.90;;;;;;5070659;28;20476;-47
2022/06/16 07:59:21;;;;;;;6.23;4.90;;;20.60;99.90;;;;;;5068668;28;20475;-51
2022/06/16 08:01:48;;;;;;;6.60;4.90;;;20.50;99.90;;;;;;5069591;28;20444;-47
2022/06/16 08:04:15;;;;;;;8.17;5.70;;;20.60;99.90;;;;;;5129453;22;20918;-50
2022/06/16 08:06:43;;;;;;;9.53;6.97;;;20.40;99.90;;;;;;5090108;28;20479;-50
2022/06/16 08:09:12;;;;;;;9.33;6.00;;;20.40;99.90;;;;;;5090845;28;20467;-52
2022/06/16 08:14:24;;;;;;;14.03;7.50;;;20.30;99.90;;;;;;5102092;28;20438;-48
2022/06/16 08:16:51;;;;;;;10.37;5.80;;;20.40;99.90;;;;;;5115828;28;20897;-49
2022/06/16 08:19:19;;;;;;;16.40;6.23;;;20.50;99.90;;;;;;5115413;28;20446;-48
2022/06/16 08:21:46;;;;;;;8.47;5.57;;;20.70;99.90;;;;;;5114483;28;20451;-50
2022/06/16 08:24:15;;;;;;;9.70;6.10;;;20.80;99.90;;;;;;5113864;28;20491;-47
2022/06/16 08:26:43;;;;;;;8.07;5.50;;;20.90;99.90;;;;;;5115108;28;20438;-46
2022/06/16 08:29:12;;;;;;;6.03;5.17;;;21.00;99.90;;;;;;5115154;28;20478;-48
2022/06/16 08:31:39;;;;;;;9.00;6.90;;;21.00;99.90;;;;;;5115503;28;20477;-46
2022/06/16 08:34:07;;;;;;;6.20;5.60;;;21.10;99.90;;;;;;5114453;28;20542;-46
2022/06/16 08:36:34;;;;;;;7.87;5.73;;;21.10;99.90;;;;;;5114565;28;20506;-46
2022/06/16 08:39:01;;;;;;;8.03;5.20;;;21.20;99.90;;;;;;5114713;28;20533;-49
2022/06/16 08:41:41;;;;;;;6.90;5.23;;;21.10;99.90;;;;;;5114904;28;20531;-46
2022/06/16 08:44:13;;;;;;;6.73;5.70;;;21.00;99.90;;;;;;5115027;28;20497;-49
2022/06/16 08:46:51;;;;;;;11.03;6.20;;;21.10;99.90;;;;;;5114232;28;20491;-47
2022/06/16 08:49:33;;;;;;;10.20;5.50;;;21.10;99.90;;;;;;5114500;28;20473;-46
2022/06/16 08:52:16;;;;;;;7.83;6.60;;;21.10;99.90;;;;;;5115065;28;20470;-47
2022/06/16 08:54:59;;;;;;;7.47;5.97;;;21.10;99.90;;;;;;5114974;28;20493;-46
2022/06/16 08:57:35;;;;;;;8.70;5.97;;;20.90;99.90;;;;;;5113884;28;20568;-48
2022/06/16 09:00:07;;;;;;;6.20;5.60;;;21.00;99.90;;;;;;5113184;28;20442;-46
2022/06/16 09:02:42;;;;;;;7.03;5.93;;;20.90;99.90;;;;;;5114120;28;20530;-46
2022/06/16 09:05:22;;;;;;;6.27;5.67;;;20.90;99.90;;;;;;5114301;28;20522;-48
2022/06/16 09:07:56;;;;;;;6.70;6.00;;;20.90;99.90;;;;;;5113665;28;20466;-47
2022/06/16 09:10:30;;;;;;;8.27;6.50;;;20.80;99.90;;;;;;5112960;28;20525;-47
2022/06/16 09:13:17;;;;;;;6.07;5.47;;;20.80;99.90;;;;;;5114008;28;20920;-46
2022/06/16 09:15:52;;;;;;;8.40;5.93;;;20.80;99.90;;;;;;5114479;28;20466;-46
2022/06/16 09:18:40;;;;;;;8.83;5.90;;;20.70;99.90;;;;;;5114281;28;20473;-49
2022/06/16 09:21:19;;;;;;;7.63;6.00;;;20.60;99.90;;;;;;5113429;28;20438;-46
2022/06/16 09:24:08;;;;;;;7.73;6.00;;;20.50;99.90;;;;;;5114110;28;20446;-47
2022/06/16 09:26:40;;;;;;;11.30;6.13;;;20.50;99.90;;;;;;5114072;28;20864;-46
2022/06/16 09:29:15;;;;;;;16.03;5.70;;;20.60;99.90;;;;;;5114339;28;20470;-46
2022/06/16 09:31:49;;;;;;;8.50;5.33;;;20.50;99.90;;;;;;5113988;28;20516;-46
2022/06/16 09:34:21;;;;;;;4.77;3.83;;;20.60;99.90;;;;;;5114284;28;20454;-46
2022/06/16 09:36:54;;;;;;;5.97;4.50;;;20.60;99.90;;;;;;5113766;28;21009;-46
2022/06/16 09:39:26;;;;;;;4.67;4.23;;;20.70;99.90;;;;;;5113761;28;20442;-48
2022/06/16 09:44:50;;;;;;;4.60;3.60;;;20.80;99.90;;;;;;5113845;28;20522;-47
2022/06/16 09:47:24;;;;;;;6.20;3.30;;;20.80;99.90;;;;;;5113967;28;20513;-47
2022/06/16 09:49:59;;;;;;;4.83;4.07;;;20.80;99.90;;;;;;5113833;28;20450;-46
2022/06/16 09:52:34;;;;;;;8.53;5.53;;;20.80;99.90;;;;;;5113525;28;20995;-47
2022/06/16 09:55:05;;;;;;;6.57;5.13;;;20.50;99.90;;;;;;5113524;28;20490;-46
2022/06/16 09:57:38;;;;;;;6.23;5.40;;;20.30;99.90;;;;;;5112133;28;20527;-48
2022/06/16 10:00:11;;;;;;;10.03;5.50;;;20.20;99.90;;;;;;5112746;28;20475;-46
2022/06/16 10:02:42;;;;;;;8.20;5.17;;;20.20;99.90;;;;;;5113412;28;20923;-50
2022/06/16 10:05:13;;;;;;;6.50;4.63;;;20.10;99.90;;;;;;5113024;28;20471;-46
2022/06/16 10:07:46;;;;;;;10.37;5.03;;;20.00;99.90;;;;;;5113411;28;20434;-49
2022/06/16 10:10:21;;;;;;;7.97;5.37;;;20.00;99.90;;;;;;5109631;28;20432;-49
2022/06/16 10:12:56;;;;;;;7.00;5.27;;;20.20;99.90;;;;;;5098229;28;20951;-48
2022/06/16 10:15:30;;;;;;;7.43;5.30;;;20.20;99.90;;;;;;5091653;28;20542;-46
2022/06/16 10:17:59;;;;;;;9.20;5.50;;;20.40;99.90;;;;;;5092838;28;20904;-48
2022/06/16 10:20:27;;;;;;;8.60;5.40;;;20.40;99.90;;;;;;5092410;28;20953;-45
2022/06/16 10:22:59;;;;;;;7.83;6.00;;;20.40;99.90;;;;;;5098385;28;20439;-46
2022/06/16 10:25:31;;;;;;;6.23;5.63;;;20.40;99.90;;;;;;5099295;28;20455;-46
2022/06/16 10:28:04;;;;;;;7.23;6.60;;;20.50;99.90;;;;;;5103351;28;20846;-46
2022/06/16 10:30:38;;;;;;;8.03;6.13;;;20.60;99.90;;;;;;5103170;28;20463;-46
2022/06/16 10:33:12;;;;;;;8.10;6.20;;;20.60;99.90;;;;;;5092460;28;20435;-47
2022/06/16 10:35:44;;;;;;;7.70;5.43;;;20.70;99.90;;;;;;5090725;28;20547;-46
2022/06/16 10:38:12;;;;;;;9.40;5.80;;;20.70;99.90;;;;;;5090517;28;20485;-46
2022/06/16 10:40:42;;;;;;;8.10;5.50;;;20.80;99.90;;;;;;5091578;28;20443;-46
2022/06/16 10:43:13;;;;;;;7.77;5.70;;;20.70;99.90;;;;;;5092075;28;20467;-45
2022/06/16 10:45:42;;;;;;;6.20;5.63;;;20.70;99.90;;;;;;5092017;28;20463;-49
2022/06/16 10:48:19;;;;;;;29.73;14.37;;;20.70;99.90;;;;;;5091823;28;20493;-46
2022/06/16 10:50:50;;;;;;;10.10;6.60;;;20.80;99.90;;;;;;5091660;28;20955;-46
2022/06/16 10:53:23;;;;;;;5.67;4.90;;;21.00;99.90;;;;;;5091629;28;20997;-49
2022/06/16 10:55:50;;;;;;;7.13;5.60;;;21.20;99.90;;;;;;5091729;28;20538;-46
2022/06/16 10:58:19;;;;;;;6.63;6.03;;;21.30;99.90;;;;;;5091389;28;20463;-46
2022/06/16 11:01:02;;;;;;;9.37;4.80;;;21.30;99.90;;;;;;5091245;28;20471;-47
2022/06/16 11:03:35;;;;;;;7.77;5.67;;;21.30;99.90;;;;;;5091630;28;20440;-46
2022/06/16 11:06:03;;;;;;;6.93;4.50;;;21.30;99.90;;;;;;5091912;28;20447;-46
2022/06/16 11:08:36;;;;;;;7.40;4.40;;;21.30;99.90;;;;;;5091729;28;20844;-45
2022/06/16 11:11:05;;;;;;;10.07;5.07;;;21.30;99.90;;;;;;5092401;28;20487;-46
2022/06/16 11:13:35;;;;;;;41.47;7.00;;;21.30;99.90;;;;;;5091945;28;20478;-48
2022/06/16 11:16:10;;;;;;;5.50;3.80;;;21.30;99.90;;;;;;5091782;28;20458;-46
2022/06/16 11:18:38;;;;;;;5.57;4.40;;;21.30;99.90;;;;;;5091689;28;20862;-46
2022/06/16 11:21:19;;;;;;;4.17;3.43;;;21.20;99.90;;;;;;5091456;28;20443;-46
2022/06/16 11:23:51;;;;;;;4.77;3.57;;;21.10;99.90;;;;;;5091243;28;20475;-46
2022/06/16 11:26:24;;;;;;;4.57;3.97;;;21.10;99.90;;;;;;5091737;28;20944;-47
2022/06/16 11:28:52;;;;;;;5.87;2.90;;;21.00;99.90;;;;;;5091154;28;20443;-46
2022/06/16 11:31:23;;;;;;;4.43;2.50;;;20.90;99.90;;;;;;5091714;28;20475;-46
2022/06/16 11:34:08;;;;;;;5.73;3.40;;;20.90;99.90;;;;;;5091349;28;20854;-46
2022/06/16 11:37:00;;;;;;;6.67;3.60;;;20.90;99.90;;;;;;5091548;28;20467;-45
2022/06/16 11:39:39;;;;;;;6.50;3.67;;;20.70;99.90;;;;;;5091232;28;20439;-46
2022/06/16 11:42:17;;;;;;;4.30;3.37;;;20.70;99.90;;;;;;5091154;28;20435;-50
2022/06/16 11:44:55;;;;;;;3.60;3.03;;;20.70;99.90;;;;;;5090932;28;20830;-48
2022/06/16 11:47:37;;;;;;;6.57;3.43;;;20.70;99.90;;;;;;5091379;28;20431;-46
2022/06/16 11:50:12;;;;;;;4.43;3.30;;;20.60;99.90;;;;;;5089731;28;20505;-43
2022/06/16 11:52:47;;;;;;;4.83;3.57;;;20.60;99.90;;;;;;5089941;28;20465;-45
2022/06/16 11:55:26;;;;;;;3.77;2.80;;;20.60;99.90;;;;;;5090622;28;20975;-46
2022/06/16 11:58:04;;;;;;;8.30;3.67;;;20.60;99.90;;;;;;5091401;28;20503;-46
2022/06/16 12:00:36;;;;;;;7.30;3.50;;;20.70;99.90;;;;;;5089667;28;20538;-47
2022/06/16 12:03:21;;;;;;;4.20;3.10;;;20.70;99.90;;;;;;5089438;28;20522;-44
2022/06/16 12:06:01;;;;;;;4.13;2.53;;;20.70;99.90;;;;;;5090329;28;20517;-48
2022/06/16 12:08:44;;;;;;;5.70;3.27;;;20.70;99.90;;;;;;5091310;28;20413;-48
2022/06/16 12:11:13;;;;;;;4.23;3.53;;;20.80;99.90;;;;;;5091289;28;20445;-46
2022/06/16 12:13:49;;;;;;;2.93;2.63;;;20.80;99.90;;;;;;5091004;28;20948;-47
2022/06/16 12:16:25;;;;;;;4.20;2.67;;;20.90;99.90;;;;;;5089945;28;20439;-50
2022/06/16 12:19:04;;;;;;;7.13;2.50;;;21.00;99.90;;;;;;5090078;28;20873;-47
2022/06/16 12:21:37;;;;;;;3.30;3.00;;;21.10;99.90;;;;;;5090982;28;20467;-47
2022/06/16 12:24:20;;;;;;;3.80;2.80;;;21.10;99.90;;;;;;5091081;28;20868;-46
2022/06/16 12:26:55;;;;;;;3.50;3.00;;;21.20;99.90;;;;;;5090689;28;20527;-48
2022/06/16 12:29:31;;;;;;;3.57;2.83;;;21.20;99.90;;;;;;5090496;28;20932;-46
2022/06/16 12:32:05;;;;;;;4.60;4.20;;;21.20;99.90;;;;;;5091294;28;20462;-47
2022/06/16 12:34:40;;;;;;;4.20;2.87;;;20.90;99.90;;;;;;5090812;28;20964;-46
2022/06/16 12:37:12;;;;;;;16.30;4.63;;;20.90;99.90;;;;;;5091075;28;20435;-47
2022/06/16 12:39:44;;;;;;;4.43;3.60;;;21.10;99.90;;;;;;5090708;28;20510;-46
2022/06/16 12:42:14;;;;;;;3.47;2.80;;;21.10;99.90;;;;;;5090774;28;20475;-47
2022/06/16 12:44:44;;;;;;;5.43;3.43;;;21.20;99.90;;;;;;5090784;28;20449;-43
2022/06/16 12:47:19;;;;;;;6.47;3.43;;;21.30;99.90;;;;;;5091013;28;20528;-46
2022/06/16 12:49:55;;;;;;;3.93;3.20;;;21.30;99.90;;;;;;5090669;28;20447;-51
2022/06/16 12:52:26;;;;;;;4.53;3.20;;;21.40;99.90;;;;;;5089173;28;20435;-49
2022/06/16 12:55:00;;;;;;;3.63;3.17;;;21.50;99.90;;;;;;5089319;28;20856;-47
2022/06/16 12:57:32;;;;;;;5.37;3.03;;;21.50;99.90;;;;;;5104152;28;20444;-46
2022/06/16 13:00:02;;;;;;;4.13;2.90;;;21.50;99.90;;;;;;5114107;28;20484;-47
2022/06/16 13:02:34;;;;;;;6.03;3.57;;;21.50;99.90;;;;;;5109120;28;20477;-47
2022/06/16 13:05:09;;;;;;;4.60;3.63;;;21.60;99.90;;;;;;5105973;28;20494;-50
2022/06/16 13:07:38;;;;;;;5.00;3.10;;;21.50;99.90;;;;;;5107583;28;20435;-47
2022/06/16 13:10:07;;;;;;;4.17;3.77;;;21.60;99.90;;;;;;5114641;28;20440;-46
2022/06/16 13:12:39;;;;;;;4.10;3.50;;;21.60;99.90;;;;;;5114710;28;20482;-48
2022/06/16 13:15:10;;;;;;;3.83;3.37;;;21.60;99.90;;;;;;5114340;28;20466;-46
2022/06/16 13:17:45;;;;;;;4.50;3.77;;;21.60;99.90;;;;;;5114241;28;20525;-46
2022/06/16 13:20:18;;;;;;;7.43;4.90;;;21.70;99.90;;;;;;5114047;28;20514;-46
2022/06/16 13:22:49;;;;;;;8.87;5.50;;;21.80;99.90;;;;;;5095377;28;20490;-48
2022/06/16 13:25:38;;;;;;;5.13;4.13;;;21.90;99.90;;;;;;5093901;28;20550;-46
2022/06/16 13:28:07;;;;;;;5.10;4.03;;;22.00;99.90;;;;;;5092391;28;20928;-46